Time;durP1;ratioP1;P1;durP2;ratioP2;P2;SDS_P1;SDS_P2;PMS_P1;PMS_P2;Temp;Humidity;BMP_temperature;BMP_pressure;BME280_temperature;BME280_humidity;BME280_pressure;Samples;Min_cycle;Max_cycle;Signal;HPM_P1;HPM_P2
2021/05/20 00:02:15;;;;;;;9.53;7.50;;;;;;;12.84;63.30;100587.44;5062760;28;20926;-74
2021/05/20 00:04:42;;;;;;;9.30;7.63;;;;;;;12.78;63.44;100589.72;5063796;28;20519;-73
2021/05/20 00:07:08;;;;;;;11.57;8.77;;;;;;;12.86;63.24;100594.34;5063034;28;20548;-74
2021/05/20 00:09:35;;;;;;;8.53;7.53;;;;;;;12.90;63.18;100598.44;5062649;28;20452;-74
2021/05/20 00:12:01;;;;;;;11.10;7.50;;;;;;;12.59;64.22;100597.84;5063007;28;20481;-74
2021/05/20 00:14:28;;;;;;;8.47;7.53;;;;;;;12.74;63.82;100600.88;5063174;28;20468;-74
2021/05/20 00:16:55;;;;;;;10.43;8.00;;;;;;;12.66;63.70;100598.94;5063276;28;20491;-75
2021/05/20 00:19:22;;;;;;;9.53;8.10;;;;;;;12.60;63.76;100597.69;5062923;28;20609;-74
2021/05/20 00:21:48;;;;;;;9.30;8.30;;;;;;;12.61;63.68;100603.91;5062847;28;20485;-75
2021/05/20 00:24:14;;;;;;;11.50;8.33;;;;;;;12.54;63.78;100603.63;5062619;28;20543;-74
2021/05/20 00:26:41;;;;;;;10.57;8.20;;;;;;;12.56;63.45;100612.38;5062839;28;21075;-75
2021/05/20 00:29:07;;;;;;;11.40;8.40;;;;;;;12.51;63.53;100613.78;5062691;28;20468;-74
2021/05/20 00:31:33;;;;;;;10.03;7.90;;;;;;;12.48;63.41;100617.63;5062941;28;20476;-74
2021/05/20 00:34:00;;;;;;;9.97;7.93;;;;;;;12.43;63.36;100612.69;5063615;28;20476;-75
2021/05/20 00:36:26;;;;;;;12.60;9.20;;;;;;;12.40;63.66;100625.53;5062133;28;20509;-74
2021/05/20 00:38:52;;;;;;;12.00;9.57;;;;;;;12.37;63.56;100623.97;5062067;28;20945;-74
2021/05/20 00:41:20;;;;;;;10.87;9.23;;;;;;;12.33;64.14;100613.69;5061855;28;20504;-75
2021/05/20 00:43:46;;;;;;;11.63;9.13;;;;;;;12.34;64.09;100613.56;5062796;28;20477;-75
2021/05/20 00:46:14;;;;;;;14.50;10.17;;;;;;;12.38;63.84;100620.31;5061957;28;20571;-75
2021/05/20 00:48:40;;;;;;;15.37;9.20;;;;;;;12.42;63.87;100615.50;5062607;28;20480;-73
2021/05/20 00:51:07;;;;;;;11.43;8.70;;;;;;;12.42;63.96;100619.03;5062231;28;20509;-75
2021/05/20 00:53:33;;;;;;;12.13;9.37;;;;;;;12.35;64.06;100625.94;5059815;28;20536;-75
2021/05/20 00:55:59;;;;;;;13.37;9.37;;;;;;;12.40;64.09;100626.38;5058985;28;20504;-74
2021/05/20 00:58:26;;;;;;;11.17;9.03;;;;;;;12.41;64.09;100630.75;5061971;28;20536;-74
2021/05/20 01:00:54;;;;;;;14.47;9.73;;;;;;;12.45;64.26;100634.00;5061900;28;20520;-75
2021/05/20 01:03:20;;;;;;;11.20;8.53;;;;;;;12.58;63.64;100636.38;5062489;28;20445;-73
2021/05/20 01:05:47;;;;;;;9.70;8.67;;;;;;;12.70;63.41;100629.00;5062257;28;20468;-75
2021/05/20 01:08:14;;;;;;;12.37;8.50;;;;;;;12.68;63.24;100639.88;5062016;28;20639;-75
2021/05/20 01:10:40;;;;;;;12.83;9.90;;;;;;;12.69;62.94;100640.72;5060910;28;20481;-74
2021/05/20 01:13:06;;;;;;;13.67;9.63;;;;;;;12.64;63.09;100651.91;5062947;28;20538;-74
2021/05/20 01:15:33;;;;;;;11.47;9.47;;;;;;;12.62;63.14;100649.34;5061419;28;20535;-73
2021/05/20 01:18:01;;;;;;;12.70;8.73;;;;;;;12.69;62.88;100641.56;5062697;28;20556;-74
2021/05/20 01:20:29;;;;;;;10.87;9.00;;;;;;;12.67;63.04;100646.22;5060707;28;20500;-72
2021/05/20 01:23:04;;;;;;;11.70;9.00;;;;;;;12.60;62.96;100647.78;5062026;28;20530;-74
2021/05/20 01:25:30;;;;;;;10.43;8.80;;;;;;;12.60;62.99;100645.97;5060705;28;20476;-73
2021/05/20 01:28:01;;;;;;;12.10;9.20;;;;;;;12.59;63.03;100649.63;5062471;28;20448;-74
2021/05/20 01:30:28;;;;;;;9.90;8.53;;;;;;;12.51;62.99;100645.97;5060857;28;20460;-75
2021/05/20 01:32:54;;;;;;;11.53;9.37;;;;;;;12.38;62.90;100652.50;5061791;28;20444;-75
2021/05/20 01:35:20;;;;;;;10.03;8.73;;;;;;;12.17;63.50;100649.09;5060826;28;20500;-75
2021/05/20 01:37:47;;;;;;;12.30;9.50;;;;;;;12.04;64.06;100644.84;5061292;28;20454;-75
2021/05/20 01:40:14;;;;;;;9.70;8.60;;;;;;;11.97;64.17;100649.09;5060273;28;20493;-74
2021/05/20 01:42:40;;;;;;;10.43;9.33;;;;;;;11.93;64.27;100650.38;5062039;28;21027;-75
2021/05/20 01:45:07;;;;;;;10.77;8.47;;;;;;;11.76;64.74;100653.69;5060588;28;20835;-74
2021/05/20 01:47:33;;;;;;;12.47;9.20;;;;;;;11.78;64.33;100657.09;5061978;28;20445;-75
2021/05/20 01:49:59;;;;;;;11.70;9.57;;;;;;;11.91;63.97;100662.19;5061894;28;20794;-74
2021/05/20 01:52:26;;;;;;;13.40;9.73;;;;;;;11.78;64.17;100657.09;5060565;28;20473;-75
2021/05/20 01:54:53;;;;;;;12.10;9.53;;;;;;;11.58;64.43;100653.50;5060496;28;20510;-74
2021/05/20 01:57:19;;;;;;;11.33;9.87;;;;;;;11.42;65.09;100651.34;5060553;28;20524;-73
2021/05/20 01:59:45;;;;;;;13.17;11.00;;;;;;;11.60;64.60;100652.41;5060876;28;20475;-73
2021/05/20 02:02:11;;;;;;;12.33;10.10;;;;;;;11.36;65.56;100649.22;5060444;28;20488;-73
2021/05/20 02:04:37;;;;;;;14.03;10.30;;;;;;;11.36;65.42;100650.06;5061737;28;20522;-74
2021/05/20 02:07:03;;;;;;;12.60;10.57;;;;;;;11.44;64.97;100654.72;5060942;28;20515;-74
2021/05/20 02:09:30;;;;;;;12.90;10.47;;;;;;;11.34;65.21;100656.56;5059902;28;20464;-74
2021/05/20 02:11:57;;;;;;;12.23;10.30;;;;;;;11.21;65.76;100660.28;5060608;28;20499;-74
2021/05/20 02:14:23;;;;;;;11.83;10.60;;;;;;;10.98;66.57;100656.13;5061021;28;20457;-73
2021/05/20 02:16:49;;;;;;;13.77;9.93;;;;;;;11.06;66.44;100656.31;5060519;28;20484;-73
2021/05/20 02:19:15;;;;;;;11.40;9.97;;;;;;;11.18;65.97;100657.03;5060696;28;20492;-72
2021/05/20 02:21:41;;;;;;;14.27;11.23;;;;;;;11.14;65.78;100660.97;5060675;28;20536;-73
2021/05/20 02:24:08;;;;;;;12.93;11.53;;;;;;;11.20;65.32;100657.78;5060966;28;20569;-74
2021/05/20 02:26:34;;;;;;;12.13;10.60;;;;;;;11.14;65.50;100664.50;5060690;28;21001;-75
2021/05/20 02:29:01;;;;;;;13.07;10.60;;;;;;;11.20;64.95;100661.28;5060580;28;20563;-74
2021/05/20 02:31:28;;;;;;;10.87;9.77;;;;;;;11.29;64.85;100665.81;5059383;28;20580;-74
2021/05/20 02:33:54;;;;;;;13.10;10.33;;;;;;;11.32;64.78;100659.38;5061335;28;20452;-74
2021/05/20 02:36:20;;;;;;;12.63;9.80;;;;;;;11.22;64.96;100651.28;5060216;28;20480;-73
2021/05/20 02:38:46;;;;;;;10.93;9.57;;;;;;;11.20;64.81;100660.44;5059219;28;20954;-75
2021/05/20 02:41:12;;;;;;;13.53;10.47;;;;;;;11.21;64.88;100660.28;5019957;28;20486;-72
2021/05/20 02:43:38;;;;;;;11.97;8.80;;;;;;;11.15;64.79;100652.81;5020943;28;20506;-73
2021/05/20 02:46:05;;;;;;;14.90;10.60;;;;;;;11.14;64.75;100661.81;5020450;28;20490;-74
2021/05/20 02:48:31;;;;;;;10.93;9.57;;;;;;;11.14;64.45;100663.66;5021233;28;20486;-74
2021/05/20 02:50:57;;;;;;;13.87;10.67;;;;;;;11.07;64.53;100671.34;5019849;28;20893;-74
2021/05/20 02:53:24;;;;;;;10.70;9.60;;;;;;;11.07;64.40;100661.50;5020739;28;20741;-74
2021/05/20 02:55:50;;;;;;;10.73;9.63;;;;;;;10.98;64.75;100664.97;5020228;28;20502;-74
2021/05/20 02:58:18;;;;;;;11.40;9.53;;;;;;;10.96;64.82;100671.47;5021131;28;20455;-74
2021/05/20 03:00:46;;;;;;;11.33;8.90;;;;;;;10.84;65.03;100673.34;5019410;28;20557;-74
2021/05/20 03:03:14;;;;;;;13.20;9.00;;;;;;;10.76;65.21;100674.00;5020397;28;20474;-74
2021/05/20 03:05:40;;;;;;;11.20;9.27;;;;;;;10.71;65.29;100668.19;5020351;28;20530;-74
2021/05/20 03:08:06;;;;;;;11.70;8.90;;;;;;;10.50;66.20;100663.72;5020801;28;20505;-73
2021/05/20 03:10:32;;;;;;;12.27;9.53;;;;;;;10.41;66.53;100667.16;5020065;28;20561;-74
2021/05/20 03:12:58;;;;;;;10.97;9.40;;;;;;;10.53;65.75;100666.13;5021211;28;21090;-74
2021/05/20 03:15:24;;;;;;;10.07;8.80;;;;;;;10.49;66.10;100670.03;5020207;28;20474;-74
2021/05/20 03:17:51;;;;;;;12.37;10.33;;;;;;;10.52;65.95;100679.63;5020970;28;20526;-73
2021/05/20 03:20:18;;;;;;;11.37;10.17;;;;;;;10.52;66.01;100676.97;5019725;28;20520;-74
2021/05/20 03:22:46;;;;;;;11.40;9.60;;;;;;;10.56;66.00;100681.06;5020648;28;20446;-74
2021/05/20 03:25:12;;;;;;;9.87;8.87;;;;;;;10.63;65.88;100674.22;5020683;28;20959;-73
2021/05/20 03:27:38;;;;;;;13.20;10.57;;;;;;;10.68;65.64;100674.66;5020787;28;20470;-70
2021/05/20 03:30:06;;;;;;;11.77;8.33;;;;;;;10.72;65.38;100669.91;5019533;28;20879;-73
2021/05/20 03:32:32;;;;;;;9.80;8.37;;;;;;;10.80;64.77;100671.91;5020847;28;21008;-74
2021/05/20 03:34:58;;;;;;;10.67;9.33;;;;;;;11.01;64.09;100671.91;5020691;28;20474;-74
2021/05/20 03:37:25;;;;;;;12.97;10.17;;;;;;;11.38;62.93;100674.88;5020018;28;21003;-74
2021/05/20 03:39:51;;;;;;;13.80;10.30;;;;;;;11.77;62.15;100677.69;5037696;28;20495;-74
2021/05/20 03:42:17;;;;;;;11.10;10.00;;;;;;;12.17;60.40;100676.75;5059834;28;20503;-71
2021/05/20 03:44:43;;;;;;;10.23;9.00;;;;;;;12.63;58.65;100682.38;5060067;28;20476;-72
2021/05/20 03:47:10;;;;;;;9.03;8.10;;;;;;;13.06;57.00;100681.00;5060517;28;20484;-75
2021/05/20 03:49:36;;;;;;;8.43;7.50;;;;;;;13.17;56.09;100685.34;5063749;28;20448;-75
2021/05/20 03:52:02;;;;;;;7.30;6.60;;;;;;;13.53;54.79;100696.25;5063705;28;20568;-75
2021/05/20 03:54:29;;;;;;;7.30;6.50;;;;;;;13.77;53.81;100692.19;5063161;28;20480;-72
2021/05/20 03:56:55;;;;;;;9.47;8.30;;;;;;;14.20;52.62;100690.59;5062416;28;20480;-73
2021/05/20 03:59:21;;;;;;;7.93;6.80;;;;;;;14.28;52.47;100690.69;5063344;28;20540;-74
2021/05/20 04:01:47;;;;;;;7.13;6.07;;;;;;;14.82;51.31;100694.19;5063131;28;20949;-75
2021/05/20 04:04:15;;;;;;;6.60;6.00;;;;;;;15.28;49.50;100693.13;5063885;28;20529;-75
2021/05/20 04:06:41;;;;;;;7.30;6.13;;;;;;;16.24;47.79;100698.19;5062684;28;20594;-75
2021/05/20 04:09:07;;;;;;;7.50;5.93;;;;;;;16.69;46.13;100707.66;5062843;28;20468;-75
2021/05/20 04:11:34;;;;;;;6.87;5.20;;;;;;;16.99;44.49;100699.88;5062130;28;21073;-76
2021/05/20 04:14:00;;;;;;;6.90;6.20;;;;;;;17.37;43.94;100696.59;5063280;28;20507;-74
2021/05/20 04:16:26;;;;;;;5.90;5.30;;;;;;;17.95;42.20;100700.75;5062633;28;20473;-74
2021/05/20 04:18:53;;;;;;;6.63;5.40;;;;;;;18.69;41.67;100700.19;5062784;28;20480;-75
2021/05/20 04:21:19;;;;;;;7.57;5.60;;;;;;;19.32;39.71;100705.38;5061975;28;20501;-75
2021/05/20 04:23:46;;;;;;;7.40;6.07;;;;;;;19.79;38.85;100706.88;5062370;28;20600;-74
2021/05/20 04:26:13;;;;;;;7.23;5.57;;;;;;;20.30;37.13;100712.22;5059486;28;20576;-74
2021/05/20 04:28:40;;;;;;;8.83;6.40;;;;;;;20.76;36.69;100707.44;5061228;28;20484;-75
2021/05/20 04:31:06;;;;;;;7.20;6.60;;;;;;;20.98;36.09;100709.09;5062411;28;20493;-75
2021/05/20 04:33:32;;;;;;;7.27;6.27;;;;;;;21.48;35.99;100711.75;5062210;28;20487;-75
2021/05/20 04:35:58;;;;;;;6.73;6.03;;;;;;;21.85;34.43;100706.88;5064292;28;20476;-72
2021/05/20 04:38:24;;;;;;;6.73;6.13;;;;;;;21.89;34.21;100702.72;5065997;28;20457;-75
2021/05/20 04:40:50;;;;;;;6.90;6.20;;;;;;;22.25;33.78;100703.44;5064616;28;20476;-75
2021/05/20 04:43:16;;;;;;;5.47;4.90;;;;;;;22.15;33.32;100720.16;5064066;28;20482;-76
2021/05/20 04:45:46;;;;;;;7.13;5.67;;;;;;;21.99;34.39;100718.66;5062781;28;20508;-75
2021/05/20 04:48:12;;;;;;;6.57;5.87;;;;;;;22.27;33.67;100713.13;5063564;28;20495;-74
2021/05/20 04:50:40;;;;;;;7.03;5.63;;;;;;;22.53;33.69;100725.09;5062495;28;20472;-74
2021/05/20 04:53:06;;;;;;;6.37;5.77;;;;;;;23.83;31.67;100725.38;5062563;28;20445;-74
2021/05/20 04:55:32;;;;;;;5.90;5.07;;;;;;;24.51;30.20;100734.03;5061201;28;20499;-75
2021/05/20 04:57:58;;;;;;;6.40;5.80;;;;;;;24.40;30.11;100733.69;5061700;28;20457;-76
2021/05/20 05:00:24;;;;;;;7.17;6.10;;;;;;;25.27;28.84;100734.91;5061170;28;20472;-76
2021/05/20 05:02:51;;;;;;;7.23;6.53;;;;;;;25.81;28.90;100746.94;5061198;28;20476;-75
2021/05/20 05:05:18;;;;;;;10.50;8.90;;;;;;;25.45;29.00;100745.03;5061484;28;20457;-73
2021/05/20 05:07:44;;;;;;;9.30;7.90;;;;;;;25.19;29.82;100752.44;5061269;28;20484;-74
2021/05/20 05:10:11;;;;;;;9.30;7.93;;;;;;;24.20;31.32;100744.75;5060487;28;20496;-68
2021/05/20 05:12:38;;;;;;;10.37;9.37;;;;;;;22.91;33.66;100740.84;5061660;28;20453;-69
2021/05/20 05:15:05;;;;;;;10.17;9.10;;;;;;;20.31;38.72;100741.06;5061173;28;20545;-67
2021/05/20 05:17:31;;;;;;;11.60;10.50;;;;;;;21.23;37.92;100746.69;5061428;28;20461;-67
2021/05/20 05:19:58;;;;;;;11.90;10.70;;;;;;;20.45;39.59;100749.34;5060725;28;20644;-68
2021/05/20 05:22:24;;;;;;;10.00;9.00;;;;;;;21.58;36.61;100742.16;5059948;28;20500;-69
2021/05/20 05:24:51;;;;;;;12.73;11.20;;;;;;;18.13;44.68;100743.75;5060887;28;20832;-68
2021/05/20 05:27:17;;;;;;;12.20;10.90;;;;;;;19.36;42.47;100750.06;5060987;28;20534;-68
2021/05/20 05:29:44;;;;;;;11.90;10.40;;;;;;;19.55;41.93;100740.53;5060528;28;20730;-67
2021/05/20 05:32:10;;;;;;;14.00;10.30;;;;;;;20.51;39.86;100746.69;5060479;28;20606;-69
2021/05/20 05:34:36;;;;;;;11.90;10.30;;;;;;;21.40;37.89;100744.50;5061276;28;20497;-68
2021/05/20 05:37:03;;;;;;;12.80;10.57;;;;;;;22.36;36.06;100738.28;5059481;28;20582;-68
2021/05/20 05:39:30;;;;;;;13.63;10.97;;;;;;;19.88;41.00;100737.44;5060601;28;20500;-67
2021/05/20 05:41:56;;;;;;;13.50;11.03;;;;;;;19.66;41.96;100745.47;5059798;28;20468;-68
2021/05/20 05:44:22;;;;;;;11.53;10.43;;;;;;;17.81;45.92;100742.88;5060184;28;20484;-68
2021/05/20 05:46:48;;;;;;;12.87;11.57;;;;;;;18.84;44.08;100745.50;5060128;28;20496;-67
2021/05/20 05:49:16;;;;;;;12.43;11.10;;;;;;;20.20;40.77;100749.72;5059772;28;20511;-68
2021/05/20 05:51:45;;;;;;;13.40;11.80;;;;;;;20.23;41.13;100748.50;5058935;28;20477;-68
2021/05/20 05:54:13;;;;;;;12.53;11.23;;;;;;;19.15;43.02;100748.09;5061227;28;20508;-68
2021/05/20 05:56:39;;;;;;;14.20;11.50;;;;;;;18.36;44.86;100751.91;5060874;28;20471;-68
2021/05/20 05:59:05;;;;;;;16.30;12.20;;;;;;;17.68;46.67;100748.84;5060266;28;21278;-68
2021/05/20 06:01:32;;;;;;;15.73;12.63;;;;;;;16.79;49.32;100752.53;5060202;28;20523;-67
2021/05/20 06:03:59;;;;;;;15.80;13.90;;;;;;;17.51;47.79;100749.91;5061353;28;20433;-66
2021/05/20 06:06:25;;;;;;;17.00;12.97;;;;;;;17.55;48.28;100751.28;5060039;28;20485;-67
2021/05/20 06:08:51;;;;;;;13.70;11.60;;;;;;;17.55;47.74;100751.28;5060822;28;20479;-68
2021/05/20 06:11:18;;;;;;;14.30;12.10;;;;;;;18.45;45.37;100755.41;5059805;28;20551;-67
2021/05/20 06:13:44;;;;;;;14.87;13.00;;;;;;;20.32;40.90;100742.75;5057334;28;20527;-73
2021/05/20 06:16:10;;;;;;;17.30;12.30;;;;;;;20.08;41.58;100762.09;5053182;28;20556;-75
2021/05/20 06:18:36;;;;;;;15.00;13.40;;;;;;;19.81;41.99;100756.34;5061107;28;20890;-76
2021/05/20 06:21:03;;;;;;;14.77;13.03;;;;;;;19.66;41.98;100756.31;5058783;28;20483;-74
2021/05/20 06:23:29;;;;;;;13.77;12.30;;;;;;;19.32;43.44;100765.00;5058976;28;20471;-76
2021/05/20 06:25:55;;;;;;;15.40;12.77;;;;;;;19.41;42.63;100761.19;5060080;28;20496;-74
2021/05/20 06:28:23;;;;;;;17.07;14.23;;;;;;;17.67;47.28;100776.91;5060333;28;20457;-76
2021/05/20 06:30:49;;;;;;;18.40;14.47;;;;;;;17.57;47.85;100786.22;5061703;28;20475;-77
2021/05/20 06:33:16;;;;;;;20.90;15.00;;;;;;;17.57;47.47;100781.69;5061661;28;20448;-80
2021/05/20 06:35:42;;;;;;;19.47;15.00;;;;;;;18.06;46.89;100773.38;5059914;28;20469;-72
2021/05/20 06:38:08;;;;;;;18.40;14.53;;;;;;;17.63;48.57;100774.72;5058832;28;20433;-75
2021/05/20 06:40:34;;;;;;;16.47;14.77;;;;;;;20.06;42.71;100775.88;5059084;28;20504;-71
2021/05/20 06:43:00;;;;;;;17.00;14.97;;;;;;;20.55;41.32;100768.88;5060658;28;20434;-68
2021/05/20 06:45:28;;;;;;;17.77;15.30;;;;;;;19.65;42.78;100773.66;5064945;28;20469;-78
2021/05/20 06:47:54;;;;;;;16.30;14.30;;;;;;;18.56;45.33;100773.94;5061735;28;20521;-81
2021/05/20 06:50:20;;;;;;;18.33;16.43;;;;;;;19.13;44.61;100772.66;5059799;28;20875;-71
2021/05/20 06:52:49;;;;;;;16.13;13.90;;;;;;;19.23;44.96;100780.50;5059775;28;20437;-72
2021/05/20 06:55:15;;;;;;;19.03;16.30;;;;;;;18.14;47.17;100783.34;5039970;28;20461;-74
2021/05/20 07:00:25;;;;;;;18.97;15.50;;;;;;;17.01;50.26;100775.34;5038953;28;20598;-77
2021/05/20 07:02:52;;;;;;;18.60;15.70;;;;;;;18.69;47.29;100780.63;5050339;28;20445;-77
2021/05/20 07:05:19;;;;;;;17.60;15.70;;;;;;;17.54;49.13;100787.44;5059254;28;20514;-74
2021/05/20 07:07:45;;;;;;;19.97;17.33;;;;;;;17.80;48.94;100791.75;5059520;28;20440;-79
2021/05/20 07:10:12;;;;;;;20.77;18.07;;;;;;;16.10;52.71;100793.25;5063360;28;20475;-79
2021/05/20 07:12:38;;;;;;;19.07;17.10;;;;;;;17.12;51.27;100791.22;5061015;28;20481;-82
2021/05/20 07:15:06;;;;;;;20.07;17.10;;;;;;;17.67;49.03;100794.97;5062316;28;20457;-73
2021/05/20 07:17:32;;;;;;;18.50;16.57;;;;;;;16.14;53.05;100791.91;5060854;28;20437;-80
2021/05/20 07:19:59;;;;;;;23.87;18.30;;;;;;;16.43;52.17;100794.19;5061306;28;20445;-78
2021/05/20 07:22:27;;;;;;;22.93;17.80;;;;;;;16.52;52.03;100784.25;5058310;28;20512;-76
2021/05/20 07:24:53;;;;;;;20.10;17.13;;;;;;;16.33;52.25;100774.59;5063785;28;20425;-73
2021/05/20 07:27:20;;;;;;;20.27;18.07;;;;;;;18.63;46.46;100785.72;5062899;28;20592;-76
2021/05/20 07:29:46;;;;;;;19.93;17.80;;;;;;;17.87;47.40;100773.81;5063562;28;20449;-82
2021/05/20 07:32:17;;;;;;;21.43;17.17;;;;;;;18.17;46.99;100776.72;5063699;28;20803;-77
2021/05/20 07:34:44;;;;;;;21.87;17.50;;;;;;;17.88;47.41;100773.66;5063963;28;20496;-74
2021/05/20 07:37:11;;;;;;;21.50;18.70;;;;;;;17.58;49.12;100780.66;5062326;28;20857;-71
2021/05/20 07:39:37;;;;;;;19.43;17.27;;;;;;;17.96;47.99;100778.16;5063076;28;20881;-73
2021/05/20 07:42:04;;;;;;;19.03;17.03;;;;;;;17.07;50.42;100774.69;5063541;28;20492;-73
2021/05/20 07:44:30;;;;;;;23.30;18.37;;;;;;;19.47;44.58;100778.59;5062493;28;20463;-72
2021/05/20 07:46:57;;;;;;;23.57;17.90;;;;;;;21.32;41.60;100789.03;5063363;28;20504;-73
2021/05/20 07:49:25;;;;;;;20.53;16.90;;;;;;;19.56;42.94;100786.47;5063525;28;20456;-71
2021/05/20 07:51:51;;;;;;;19.67;17.20;;;;;;;19.06;44.11;100784.41;5062303;28;20523;-73
2021/05/20 07:54:18;;;;;;;21.73;16.87;;;;;;;19.24;43.96;100784.09;5063502;28;20445;-71
2021/05/20 07:56:44;;;;;;;19.47;15.80;;;;;;;17.35;48.54;100793.22;5062704;28;20476;-73
2021/05/20 07:59:11;;;;;;;17.83;15.90;;;;;;;16.45;50.07;100785.91;5062652;28;20449;-72
2021/05/20 08:01:39;;;;;;;20.43;17.30;;;;;;;16.64;50.12;100792.88;5062439;28;20476;-69
2021/05/20 08:04:08;;;;;;;20.17;17.10;;;;;;;16.91;50.19;100794.44;5063899;28;20456;-75
2021/05/20 08:06:39;;;;;;;16.83;15.00;;;;;;;17.79;48.00;100785.47;5061680;28;20480;-77
2021/05/20 08:09:16;;;;;;;21.50;15.70;;;;;;;18.09;46.83;100787.59;5063016;28;20452;-79
2021/05/20 08:11:43;;;;;;;16.83;15.03;;;;;;;19.97;43.09;100789.75;5026996;28;20503;-83
2021/05/20 08:14:09;;;;;;;18.37;16.13;;;;;;;19.38;43.61;100794.94;5061994;28;20518;-79
2021/05/20 08:16:36;;;;;;;114.87;32.97;;;;;;;18.48;46.33;100792.94;5063054;28;20476;-75
2021/05/20 08:19:02;;;;;;;21.13;15.47;;;;;;;21.37;40.65;100804.75;5064027;28;20511;-81
2021/05/20 08:21:29;;;;;;;17.70;15.80;;;;;;;21.17;39.58;100804.59;5059648;28;20488;-72
2021/05/20 08:23:55;;;;;;;17.70;15.13;;;;;;;19.85;42.41;100809.22;5063061;28;20456;-76
2021/05/20 08:26:25;;;;;;;103.67;31.30;;;;;;;19.79;42.41;100806.41;5061875;28;20476;-74
2021/05/20 08:28:52;;;;;;;21.07;16.40;;;;;;;19.56;43.98;100805.44;5061482;28;20890;-74
2021/05/20 08:31:18;;;;;;;19.57;17.47;;;;;;;18.17;46.84;100812.75;5061902;28;20472;-77
2021/05/20 08:33:45;;;;;;;17.30;15.57;;;;;;;16.57;50.40;100809.72;5063054;28;20448;-76
2021/05/20 08:36:11;;;;;;;17.70;15.80;;;;;;;16.31;51.61;100819.78;5061645;28;20480;-77
2021/05/20 08:38:37;;;;;;;16.13;14.50;;;;;;;16.69;50.89;100812.94;5062871;28;20484;-74
2021/05/20 08:41:04;;;;;;;16.00;14.40;;;;;;;19.10;45.98;100810.97;5061649;28;20523;-68
2021/05/20 08:43:30;;;;;;;13.53;11.93;;;;;;;20.01;42.67;100815.47;5061430;28;20464;-72
2021/05/20 08:45:58;;;;;;;15.27;13.67;;;;;;;19.35;44.28;100810.72;5061126;28;20473;-76
2021/05/20 08:48:24;;;;;;;17.07;13.70;;;;;;;18.70;45.05;100815.66;5062608;28;20491;-75
2021/05/20 08:50:50;;;;;;;16.10;14.17;;;;;;;17.41;48.47;100820.41;5061292;28;20489;-72
2021/05/20 08:53:17;;;;;;;14.80;13.23;;;;;;;18.69;46.12;100816.66;5062107;28;20451;-78
2021/05/20 08:55:43;;;;;;;15.03;13.53;;;;;;;18.12;46.94;100806.19;5060873;28;20507;-79
2021/05/20 08:58:10;;;;;;;15.80;14.27;;;;;;;18.62;45.34;100805.69;5062664;28;20433;-74
2021/05/20 09:00:37;;;;;;;14.17;12.57;;;;;;;19.29;43.54;100804.19;5060688;28;20468;-73
2021/05/20 09:03:06;;;;;;;15.27;13.67;;;;;;;18.17;45.85;100810.03;5062415;28;20452;-71
2021/05/20 09:05:32;;;;;;;13.90;12.50;;;;;;;18.97;44.38;100810.72;5060105;28;20507;-70
2021/05/20 09:08:01;;;;;;;13.50;12.10;;;;;;;21.75;37.86;100801.66;5060893;28;20804;-73
2021/05/20 09:10:28;;;;;;;15.10;12.00;;;;;;;21.72;36.71;100802.09;5057072;28;20549;-75
2021/05/20 09:12:58;;;;;;;13.70;12.20;;;;;;;20.80;38.70;100803.88;5056577;28;20433;-71
2021/05/20 09:15:26;;;;;;;14.37;11.93;;;;;;;21.74;37.11;100811.72;5059656;28;20456;-70
2021/05/20 09:17:54;;;;;;;17.33;13.23;;;;;;;20.21;39.63;100800.28;5061609;28;20475;-70
2021/05/20 09:20:22;;;;;;;13.50;11.77;;;;;;;18.37;43.75;100796.91;5061267;28;20448;-70
2021/05/20 09:23:02;;;;;;;13.53;11.23;;;;;;;19.06;43.76;100800.66;5059152;28;20485;-72
2021/05/20 09:25:31;;;;;;;13.60;11.27;;;;;;;19.73;41.13;100800.66;5060553;28;20472;-69
2021/05/20 09:27:57;;;;;;;14.97;11.20;;;;;;;18.65;43.43;100793.69;5061771;28;20429;-76
2021/05/20 09:30:25;;;;;;;12.10;10.50;;;;;;;18.68;43.90;100790.63;5059798;28;20460;-77
2021/05/20 09:32:53;;;;;;;14.77;11.90;;;;;;;17.42;45.71;100803.16;5062010;28;20437;-83
2021/05/20 09:35:21;;;;;;;11.23;10.03;;;;;;;19.70;41.02;100792.06;5060515;28;20433;-81
2021/05/20 09:37:50;;;;;;;12.63;9.17;;;;;;;20.34;39.02;100791.44;5060489;28;20456;-83
2021/05/20 09:40:18;;;;;;;14.93;11.30;;;;;;;19.33;41.48;100786.50;5060809;28;20495;-79
2021/05/20 09:42:46;;;;;;;11.90;9.50;;;;;;;19.49;40.75;100790.09;5061393;28;20493;-72
2021/05/20 09:45:14;;;;;;;16.20;11.10;;;;;;;18.84;42.16;100783.44;5058920;28;20540;-77
2021/05/20 09:47:41;;;;;;;18.87;12.20;;;;;;;18.46;43.60;100776.03;5062053;28;20445;-73
2021/05/20 09:50:09;;;;;;;16.63;11.07;;;;;;;20.05;39.90;100765.19;5060604;28;20452;-77
2021/05/20 09:52:36;;;;;;;14.97;11.53;;;;;;;21.17;37.47;100766.53;5060351;28;20455;-80
2021/05/20 09:55:04;;;;;;;12.60;9.40;;;;;;;22.28;35.02;100765.72;5060921;28;20452;-72
2021/05/20 09:57:31;;;;;;;12.77;9.97;;;;;;;21.70;35.95;100766.06;5040729;28;20450;-73
2021/05/20 10:00:04;;;;;;;10.50;7.87;;;;;;;21.20;36.00;100764.25;5039904;28;20557;-72
2021/05/20 10:02:31;;;;;;;12.60;9.07;;;;;;;20.45;37.35;100761.06;5040495;28;20489;-73
2021/05/20 10:04:58;;;;;;;12.17;9.90;;;;;;;23.09;33.92;100759.34;5040644;28;20461;-75
2021/05/20 10:07:32;;;;;;;9.20;8.17;;;;;;;23.74;31.38;100761.31;5039531;28;20474;-73
2021/05/20 10:09:59;;;;;;;13.70;8.17;;;;;;;24.72;30.54;100757.47;5040554;28;20470;-82
2021/05/20 10:12:26;;;;;;;11.23;9.10;;;;;;;25.14;31.01;100755.03;5055829;28;20476;-72
2021/05/20 10:14:52;;;;;;;9.63;8.27;;;;;;;25.06;32.00;100767.06;5059774;28;20511;-74
2021/05/20 10:17:18;;;;;;;9.37;6.87;;;;;;;23.66;30.58;100755.03;5060777;28;20481;-74
2021/05/20 10:19:45;;;;;;;9.53;8.50;;;;;;;24.51;30.79;100753.16;5060884;28;20461;-74
2021/05/20 10:22:13;;;;;;;8.50;7.67;;;;;;;24.08;31.72;100746.50;5057605;28;20512;-72
2021/05/20 10:24:41;;;;;;;8.50;7.37;;;;;;;23.61;32.62;100745.78;5051695;28;20453;-71
2021/05/20 10:27:10;;;;;;;11.70;6.93;;;;;;;23.23;32.22;100738.34;5058708;28;21093;-77
2021/05/20 10:29:36;;;;;;;5.50;5.00;;;;;;;24.42;31.19;100744.38;5058781;28;20445;-78
2021/05/20 10:32:03;;;;;;;5.83;5.23;;;;;;;23.67;31.21;100734.03;5058483;28;20480;-77
2021/05/20 10:34:29;;;;;;;5.93;3.23;;;;;;;23.49;29.65;100740.19;5059620;28;20954;-71
2021/05/20 10:36:56;;;;;;;6.33;4.80;;;;;;;22.75;31.52;100732.03;5058241;28;20488;-75
2021/05/20 10:39:23;;;;;;;7.10;5.40;;;;;;;21.28;33.99;100727.91;5058677;28;20527;-72
2021/05/20 10:41:50;;;;;;;4.93;4.13;;;;;;;22.11;32.71;100727.06;5058215;28;20542;-77
2021/05/20 10:44:17;;;;;;;7.80;5.90;;;;;;;21.65;33.16;100719.56;5058345;28;20449;-75
2021/05/20 10:47:03;;;;;;;8.50;5.13;;;;;;;21.38;34.72;100725.66;5058792;28;20519;-77
2021/05/20 10:50:01;;;;;;;4.27;3.77;;;;;;;20.25;35.91;100724.72;5059301;28;20448;-78
2021/05/20 10:52:46;;;;;;;5.00;4.20;;;;;;;20.53;35.70;100719.34;5057981;28;20476;-76
2021/05/20 10:55:13;;;;;;;6.77;5.37;;;;;;;21.03;34.96;100714.78;5058408;28;20452;-75
2021/05/20 10:57:56;;;;;;;7.40;6.40;;;;;;;21.03;35.95;100722.94;5062818;28;20437;-73
2021/05/20 11:00:40;;;;;;;7.53;5.80;;;;;;;22.32;33.52;100709.75;5061584;28;20491;-73
2021/05/20 11:03:06;;;;;;;7.60;5.63;;;;;;;22.38;32.20;100715.22;5063602;28;20484;-75
2021/05/20 11:05:54;;;;;;;5.97;5.37;;;;;;;22.11;33.54;100708.00;5062546;28;20468;-76
2021/05/20 11:08:57;;;;;;;6.00;5.33;;;;;;;20.78;34.43;100706.22;5063157;28;20910;-72
2021/05/20 11:11:40;;;;;;;4.97;4.43;;;;;;;21.75;34.34;100701.84;5053961;28;20519;-72
2021/05/20 11:14:27;;;;;;;5.97;5.07;;;;;;;23.00;30.95;100695.09;5061544;28;20453;-75
2021/05/20 11:16:55;;;;;;;6.17;4.73;;;;;;;21.39;33.50;100697.44;5063538;28;21009;-77
2021/05/20 11:19:28;;;;;;;5.63;4.37;;;;;;;21.36;34.53;100706.00;5064150;28;20441;-76